YCUN weather

Cunderdin Airport
Western Australia, Australia

Public forecast

Using degrees Celsius for public forecast. Weather courtesy of forecast.io.

METAR (pilot weather report)

Closest report is RAAF Base Pearce, 61.5 nm (113.9 km) W. Retrieved 2019/04/25 07:30 UTC (0 seconds ago):

YPEA 250730Z AUTO 10013KT 9999 // NCD 29/04 Q1022

TAF (pilot weather forecast)

Closest forecast is RAAF Base Pearce, 61.5 nm (113.9 km) W. Retrieved 2019/04/25 06:00 UTC (1 hour ago):

TAF YPEA 250507Z 2506/2524 10012KT CAVOK FM252000 08015G25KT CAVOK